createdAt,value
2018-02-12T00:01:41.739Z,99086.13
2018-02-12T00:04:43.817Z,99085.91
2018-02-12T00:07:45.166Z,99101.89
2018-02-12T00:10:47.189Z,99092.73
2018-02-12T00:13:48.671Z,99087.45
2018-02-12T00:16:49.963Z,99097.91
2018-02-12T00:19:51.337Z,99102.55
2018-02-12T00:22:52.652Z,99099.55
2018-02-12T00:25:54.064Z,99092.05
2018-02-12T00:28:55.500Z,99106.68
2018-02-12T00:31:57.615Z,99103.52
2018-02-12T00:34:59.744Z,99117.13
2018-02-12T00:38:01.074Z,99123.02
2018-02-12T00:41:02.438Z,99125.01
2018-02-12T00:44:03.792Z,99127.44
2018-02-12T00:47:05.128Z,99135.08
2018-02-12T00:50:07.248Z,99133.86
2018-02-12T00:53:08.578Z,99132.55
2018-02-12T00:56:10.101Z,99152.98
2018-02-12T00:59:11.476Z,99149.13
2018-02-12T01:02:13.566Z,99139.13
2018-02-12T01:05:15.712Z,99161.30
2018-02-12T01:08:17.120Z,99161.78
2018-02-12T01:11:18.496Z,99169.86
2018-02-12T01:14:19.835Z,99172.67
2018-02-12T01:17:21.192Z,99164.61
2018-02-12T01:20:23.302Z,99163.59
2018-02-12T01:23:25.385Z,99139.92
2018-02-12T01:26:27.514Z,99170.09
2018-02-12T01:29:28.857Z,99171.23
2018-02-12T01:32:30.207Z,99168.75
2018-02-12T01:35:31.661Z,99169.50
2018-02-12T01:38:33.017Z,99178.56
2018-02-12T01:41:35.086Z,99184.46
2018-02-12T01:44:36.423Z,99184.42
2018-02-12T01:47:37.780Z,99175.25
2018-02-12T01:50:39.059Z,99187.11
2018-02-12T01:53:47.297Z,99102.23
2018-02-12T01:56:49.806Z,99191.19
2018-02-12T01:59:51.133Z,99190.44
2018-02-12T02:02:52.499Z,99184.25
2018-02-12T02:05:53.821Z,99195.67
2018-02-12T02:08:55.165Z,99202.42
2018-02-12T02:11:56.524Z,99204.27
2018-02-12T02:14:57.935Z,99199.34
2018-02-12T02:17:59.253Z,99201.20
2018-02-12T02:21:01.369Z,99214.38
2018-02-12T02:24:02.778Z,99223.00
2018-02-12T02:27:04.199Z,99212.55
2018-02-12T02:30:05.596Z,99225.87
2018-02-12T02:33:07.723Z,99236.38
2018-02-12T02:36:09.061Z,99228.67
2018-02-12T02:39:10.478Z,99205.30
2018-02-12T02:42:11.835Z,99228.51
2018-02-12T02:45:13.179Z,99214.20
2018-02-12T02:48:14.482Z,99232.40
2018-02-12T02:51:15.858Z,99221.55
2018-02-12T02:54:17.202Z,99221.95
2018-02-12T02:57:19.312Z,99223.28
2018-02-12T03:00:20.820Z,99229.03
2018-02-12T03:03:22.213Z,99235.07
2018-02-12T03:06:24.271Z,99233.84
2018-02-12T03:09:25.613Z,99242.57
2018-02-12T03:12:27.736Z,99237.27
2018-02-12T03:15:29.167Z,99236.34
2018-02-12T03:18:31.338Z,99241.73
2018-02-12T03:21:32.746Z,99250.33
2018-02-12T03:24:34.150Z,99252.51
2018-02-12T03:27:36.227Z,99261.21
2018-02-12T03:30:37.618Z,99264.70
2018-02-12T03:33:39.724Z,99265.17
2018-02-12T03:36:41.799Z,99267.69
2018-02-12T03:39:43.126Z,99266.95
2018-02-12T03:42:44.522Z,99258.17
2018-02-12T03:45:45.907Z,99279.34
2018-02-12T03:48:47.297Z,99283.78
2018-02-12T03:51:48.637Z,99287.28
2018-02-12T03:54:50.777Z,99280.78
2018-02-12T03:57:52.317Z,99283.39
2018-02-12T04:00:54.427Z,99285.22
2018-02-12T04:03:55.765Z,99288.66
2018-02-12T04:06:57.129Z,99290.38
2018-02-12T04:09:58.510Z,99290.41
2018-02-12T04:12:59.894Z,99289.63
2018-02-12T04:16:01.265Z,99295.56
2018-02-12T04:19:02.627Z,99302.16
2018-02-12T04:22:04.020Z,99302.61
2018-02-12T04:25:05.396Z,99312.06
2018-02-12T04:28:06.795Z,99309.92
2018-02-12T04:31:08.134Z,99299.56
2018-02-12T04:34:10.189Z,99310.08
2018-02-12T04:37:11.578Z,99318.34
2018-02-12T04:40:12.945Z,99298.75
2018-02-12T04:43:14.322Z,99320.01
2018-02-12T04:46:15.690Z,99322.63
2018-02-12T04:49:17.046Z,99327.38
2018-02-12T04:52:18.365Z,99321.36
2018-02-12T04:55:19.711Z,99337.01
2018-02-12T04:58:21.055Z,99327.39
2018-02-12T05:01:22.437Z,99336.48
2018-02-12T05:04:24.578Z,99338.28
2018-02-12T05:07:25.904Z,99347.92
2018-02-12T05:10:27.285Z,99347.84
2018-02-12T05:13:28.677Z,99360.52
2018-02-12T05:16:30.014Z,99357.04
2018-02-12T05:19:31.366Z,99367.87
2018-02-12T05:22:33.567Z,99377.86
2018-02-12T05:25:35.700Z,99376.20
2018-02-12T05:28:37.048Z,99378.80
2018-02-12T05:31:39.125Z,99381.44
2018-02-12T05:34:40.490Z,99387.95
2018-02-12T05:37:41.885Z,99378.38
2018-02-12T05:40:43.245Z,99393.96
2018-02-12T05:43:44.602Z,99389.69
2018-02-12T05:46:45.937Z,99392.23
2018-02-12T05:49:47.261Z,99382.17
2018-02-12T05:52:48.603Z,99395.33
2018-02-12T05:55:49.964Z,99407.05
2018-02-12T05:58:51.331Z,99407.55
2018-02-12T06:01:52.617Z,99414.45
2018-02-12T06:04:53.946Z,99408.35
2018-02-12T06:07:56.023Z,99426.16
2018-02-12T06:10:57.377Z,99422.29
2018-02-12T06:13:58.725Z,99438.86
2018-02-12T06:17:00.038Z,99434.92
2018-02-12T06:20:01.394Z,99427.98
2018-02-12T06:23:02.764Z,99452.35
2018-02-12T06:26:04.090Z,99444.92
2018-02-12T06:29:05.476Z,99456.22
2018-02-12T06:32:06.789Z,99468.89
2018-02-12T06:35:08.980Z,99468.00
2018-02-12T06:38:10.333Z,99472.30
2018-02-12T06:41:11.711Z,99478.77
2018-02-12T06:44:13.038Z,99501.94
2018-02-12T06:47:15.194Z,99484.96
2018-02-12T06:50:16.502Z,99487.16
2018-02-12T06:53:18.622Z,99498.91
2018-02-12T06:56:20.697Z,99500.65
2018-02-12T06:59:22.044Z,99503.25
2018-02-12T07:02:23.360Z,99515.44
2018-02-12T07:05:24.752Z,99515.02
2018-02-12T07:08:26.838Z,99509.80
2018-02-12T07:11:28.186Z,99515.89
2018-02-12T07:14:29.528Z,99531.56
2018-02-12T07:17:31.609Z,99541.13
2018-02-12T07:20:32.957Z,99542.00
2018-02-12T07:23:34.280Z,99535.05
2018-02-12T07:26:35.611Z,99531.13
2018-02-12T07:29:36.935Z,99542.42
2018-02-12T07:32:38.269Z,99539.41
2018-02-12T07:35:39.591Z,99555.06
2018-02-12T07:38:40.928Z,99553.33
2018-02-12T07:41:42.244Z,99562.45
2018-02-12T07:44:43.604Z,99572.47
2018-02-12T07:47:44.954Z,99557.25
2018-02-12T07:50:47.042Z,99558.13
2018-02-12T07:53:48.397Z,99567.27
2018-02-12T07:56:49.739Z,99572.94
2018-02-12T07:59:51.045Z,99576.78
2018-02-12T08:02:52.367Z,99597.27
2018-02-12T08:06:01.441Z,99581.19
2018-02-12T08:09:02.887Z,99586.00
2018-02-12T08:12:05.009Z,99587.72
2018-02-12T08:15:07.116Z,99592.48
2018-02-12T08:18:10.526Z,99605.56
2018-02-12T08:21:12.957Z,99607.75
2018-02-12T08:24:14.739Z,99605.16
2018-02-12T08:27:16.409Z,99622.09
2018-02-12T08:30:20.710Z,99618.42
2018-02-12T08:33:22.144Z,99621.64
2018-02-12T08:36:23.474Z,99627.36
2018-02-12T08:39:24.805Z,99640.00
2018-02-12T08:42:26.172Z,99641.73
2018-02-12T08:45:27.491Z,99641.25
2018-02-12T08:48:28.833Z,99650.02
2018-02-12T08:51:30.148Z,99639.51
2018-02-12T08:54:32.196Z,99659.59
2018-02-12T08:57:33.561Z,99670.02
2018-02-12T09:00:34.898Z,99680.08
2018-02-12T09:03:36.960Z,99671.79
2018-02-12T09:06:38.322Z,99682.19
2018-02-12T09:09:39.672Z,99683.53
2018-02-12T09:12:40.993Z,99681.34
2018-02-12T09:15:42.344Z,99683.52
2018-02-12T09:18:43.685Z,99674.39
2018-02-12T09:21:45.027Z,99697.42
2018-02-12T09:24:46.347Z,99700.55
2018-02-12T09:27:47.690Z,99705.35
2018-02-12T09:34:30.475Z,99710.58
2018-02-12T09:37:31.771Z,99711.42
2018-02-12T09:40:33.137Z,99718.43
2018-02-12T09:43:34.479Z,99714.95
2018-02-12T09:46:36.561Z,99714.91
2018-02-12T09:49:37.892Z,99723.67
2018-02-12T09:52:39.262Z,99736.73
2018-02-12T09:55:42.096Z,99734.98
2018-02-12T09:58:44.147Z,99734.06
2018-02-12T10:01:45.490Z,99731.52
2018-02-12T10:04:47.602Z,99744.16
2018-02-12T10:07:49.042Z,99758.55
2018-02-12T10:10:50.326Z,99744.61
2018-02-12T10:13:51.671Z,99738.50
2018-02-12T10:16:53.013Z,99755.50
2018-02-12T10:19:55.096Z,99766.40
2018-02-12T10:22:56.417Z,99773.83
2018-02-12T10:25:57.836Z,99783.42
2018-02-12T10:28:59.157Z,99784.72
2018-02-12T10:32:01.261Z,99779.92
2018-02-12T10:35:03.343Z,99784.27
2018-02-12T10:38:04.741Z,99793.88
2018-02-12T10:41:06.799Z,99803.92
2018-02-12T10:44:08.190Z,99803.05
2018-02-12T10:47:09.538Z,99810.88
2018-02-12T10:50:10.901Z,99806.96
2018-02-12T10:53:12.409Z,99807.80
2018-02-12T10:56:13.762Z,99815.23
2018-02-12T10:59:15.858Z,99817.84
2018-02-12T11:02:17.914Z,99813.94
2018-02-12T11:05:19.227Z,99818.72
2018-02-12T11:08:20.635Z,99823.02
2018-02-12T11:11:21.933Z,99787.27
2018-02-12T11:14:23.262Z,99818.67
2018-02-12T11:17:24.616Z,99821.32
2018-02-12T11:20:26.009Z,99826.97
2018-02-12T11:23:27.380Z,99825.58
2018-02-12T11:26:28.756Z,99832.63
2018-02-12T11:29:30.163Z,99820.52
2018-02-12T11:32:31.575Z,99824.73
2018-02-12T11:35:33.733Z,99827.48
2018-02-12T11:38:35.104Z,99807.81
2018-02-12T11:41:36.427Z,99817.00
2018-02-12T11:44:37.773Z,99817.06
2018-02-12T11:47:39.166Z,99825.64
2018-02-12T11:50:41.272Z,99833.23
2018-02-12T11:53:42.543Z,99826.76
2018-02-12T11:56:43.914Z,99827.55
2018-02-12T11:59:45.227Z,99824.21
2018-02-12T12:02:46.567Z,99827.27
2018-02-12T12:05:47.926Z,99847.80
2018-02-12T12:08:49.257Z,99840.77
2018-02-12T12:11:50.604Z,99840.97
2018-02-12T12:14:51.966Z,99836.54
2018-02-12T12:17:53.280Z,99831.23
2018-02-12T12:20:54.623Z,99837.22
2018-02-12T12:23:56.721Z,99848.75
2018-02-12T12:26:58.125Z,99862.73
2018-02-12T12:29:59.451Z,99854.78
2018-02-12T12:33:00.794Z,99850.50
2018-02-12T12:36:02.115Z,99842.66
2018-02-12T12:39:03.482Z,99847.84
2018-02-12T12:42:04.804Z,99852.92
2018-02-12T12:45:06.882Z,99856.42
2018-02-12T12:48:08.202Z,99838.45
2018-02-12T12:51:09.584Z,99846.48
2018-02-12T12:54:10.897Z,99839.33
2018-02-12T12:57:12.215Z,99837.38
2018-02-12T13:00:13.539Z,99836.54
2018-02-12T13:03:14.869Z,99838.04
2018-02-12T13:06:16.173Z,99843.31
2018-02-12T13:09:18.235Z,99851.72
2018-02-12T13:12:19.546Z,99852.28
2018-02-12T13:18:29.009Z,99848.68
2018-02-12T13:21:30.347Z,99846.75
2018-02-12T13:24:31.648Z,99844.58
2018-02-12T13:27:33.713Z,99849.00
2018-02-12T13:30:35.065Z,99840.31
2018-02-12T13:33:36.468Z,99847.20
2018-02-12T13:36:37.798Z,99857.56
2018-02-12T13:39:39.864Z,99851.19
2018-02-12T13:42:41.209Z,99845.86
2018-02-12T13:45:42.518Z,99843.78
2018-02-12T13:48:43.866Z,99846.78
2018-02-12T13:51:45.184Z,99841.13
2018-02-12T13:54:46.479Z,99850.70
2018-02-12T13:57:47.777Z,99870.45
2018-02-12T14:00:49.840Z,99884.92
2018-02-12T14:03:51.175Z,99853.55
2018-02-12T14:06:52.529Z,99862.16
2018-02-12T14:09:53.889Z,99861.03
2018-02-12T14:12:55.178Z,99858.62
2018-02-12T14:15:56.564Z,99852.76
2018-02-12T14:18:57.913Z,99857.74
2018-02-12T14:21:59.269Z,99850.01
2018-02-12T14:25:01.364Z,99853.80
2018-02-12T14:28:03.484Z,99849.86
2018-02-12T14:31:04.839Z,99847.36
2018-02-12T14:34:06.212Z,99843.86
2018-02-12T14:37:07.535Z,99851.61
2018-02-12T14:40:08.913Z,99853.08
2018-02-12T14:43:10.251Z,99853.80
2018-02-12T14:46:11.688Z,99863.43
2018-02-12T14:49:13.026Z,99857.42
2018-02-12T14:52:16.232Z,99860.45
2018-02-12T14:55:17.564Z,99861.33
2018-02-12T14:58:19.677Z,99865.74
2018-02-12T15:01:21.069Z,99871.91
2018-02-12T15:04:23.194Z,99867.66
2018-02-12T15:07:24.527Z,99857.97
2018-02-12T15:10:25.887Z,99868.80
2018-02-12T15:13:27.239Z,99874.97
2018-02-12T15:16:28.618Z,99861.91
2018-02-12T15:19:29.974Z,99860.59
2018-02-12T15:22:32.101Z,99879.20
2018-02-12T15:25:33.431Z,99872.66
2018-02-12T15:28:34.874Z,99880.72
2018-02-12T15:31:36.247Z,99890.02
2018-02-12T15:34:37.573Z,99894.00
2018-02-12T15:37:38.942Z,99901.87
2018-02-12T15:40:40.285Z,99910.76
2018-02-12T15:43:42.359Z,99911.24
2018-02-12T15:46:43.795Z,99913.84
2018-02-12T15:49:45.114Z,99918.23
2018-02-12T15:52:46.499Z,99902.08
2018-02-12T15:55:47.860Z,99906.88
2018-02-12T15:58:49.228Z,99911.61
2018-02-12T16:01:50.597Z,99919.27
2018-02-12T16:04:52.707Z,99921.38
2018-02-12T16:07:54.049Z,99934.34
2018-02-12T16:10:55.411Z,99935.20
2018-02-12T16:13:56.819Z,99945.72
2018-02-12T16:16:58.148Z,99944.86
2018-02-12T16:19:59.450Z,99941.81
2018-02-12T16:23:00.787Z,99942.23
2018-02-12T16:26:02.107Z,99933.91
2018-02-12T16:29:03.447Z,99938.19
2018-02-12T16:32:05.501Z,99942.88
2018-02-12T16:35:06.851Z,99943.30
2018-02-12T16:38:08.891Z,99938.46
2018-02-12T16:41:10.226Z,99947.70
2018-02-12T16:44:14.564Z,99948.27
2018-02-12T16:47:16.868Z,99959.28
2018-02-12T16:50:18.170Z,99957.93
2018-02-12T16:53:20.266Z,99957.09
2018-02-12T16:56:22.364Z,99953.14
2018-02-12T16:59:24.422Z,99956.20
2018-02-12T17:02:25.768Z,99954.42
2018-02-12T17:05:27.094Z,99979.30
2018-02-12T17:08:28.425Z,99971.95
2018-02-12T17:11:30.505Z,99974.14
2018-02-12T17:14:32.543Z,99978.05
2018-02-12T17:17:33.894Z,99978.05
2018-02-12T17:20:35.949Z,99973.62
2018-02-12T17:23:37.617Z,99988.92
2018-02-12T17:26:38.574Z,99990.70
2018-02-12T17:29:39.902Z,99988.98
2018-02-12T17:32:41.879Z,99996.36
2018-02-12T17:35:43.196Z,100001.62
2018-02-12T17:38:44.517Z,100001.62
2018-02-12T17:41:46.600Z,99997.25
2018-02-12T17:44:47.933Z,100003.37
2018-02-12T17:47:49.220Z,100010.34
2018-02-12T17:50:50.511Z,100007.73
2018-02-12T17:53:51.874Z,100015.56
2018-02-12T17:56:53.181Z,100016.45
2018-02-12T17:59:54.502Z,100013.80
2018-02-12T18:02:55.800Z,100007.30
2018-02-12T18:05:57.847Z,100012.12
2018-02-12T18:08:59.171Z,100026.11
2018-02-12T18:12:00.503Z,100029.07
2018-02-12T18:15:01.843Z,100021.72
2018-02-12T18:18:03.173Z,100022.12
2018-02-12T18:21:04.496Z,100028.28
2018-02-12T18:24:05.814Z,100037.28
2018-02-12T18:27:07.111Z,100038.57
2018-02-12T18:30:08.471Z,100033.05
2018-02-12T18:33:10.549Z,100035.16
2018-02-12T18:36:11.916Z,100032.55
2018-02-12T18:39:13.211Z,100036.03
2018-02-12T18:42:14.538Z,100036.56
2018-02-12T18:45:16.618Z,100034.75
2018-02-12T18:48:17.924Z,100031.31
2018-02-12T18:51:19.234Z,100043.06
2018-02-12T18:54:20.573Z,100034.81
2018-02-12T18:57:21.863Z,100033.95
2018-02-12T19:00:23.927Z,100037.88
2018-02-12T19:03:25.934Z,100049.67
2018-02-12T19:06:27.275Z,100047.48
2018-02-12T19:09:28.577Z,100047.83
2018-02-12T19:12:30.612Z,100058.83
2018-02-12T19:15:32.273Z,100051.00
2018-02-12T19:18:33.635Z,100048.72
2018-02-12T19:21:35.142Z,100051.39
2018-02-12T19:24:36.466Z,100054.38
2018-02-12T19:27:38.487Z,100051.80
2018-02-12T19:30:39.872Z,100058.13
2018-02-12T19:33:41.339Z,100060.48
2018-02-12T19:36:43.396Z,100060.26
2018-02-12T19:39:44.802Z,100060.94
2018-02-12T19:42:46.247Z,100066.94
2018-02-12T19:45:47.653Z,100067.80
2018-02-12T19:48:49.740Z,100060.40
2018-02-12T19:51:51.236Z,100064.49
2018-02-12T19:54:52.546Z,100056.21
2018-02-12T19:57:54.604Z,100068.47
2018-02-12T20:00:56.138Z,100073.24
2018-02-12T20:03:57.696Z,100069.69
2018-02-12T20:06:59.042Z,100076.27
2018-02-12T20:10:00.406Z,100063.59
2018-02-12T20:13:01.848Z,100071.88
2018-02-12T20:16:03.515Z,100065.76
2018-02-12T20:19:04.987Z,100056.59
2018-02-12T20:22:06.687Z,100068.39
2018-02-12T20:25:08.385Z,100060.98
2018-02-12T20:28:10.485Z,100082.78
2018-02-12T20:31:11.960Z,100071.02
2018-02-12T20:34:13.741Z,100077.98
2018-02-12T20:37:15.115Z,100084.53
2018-02-12T20:40:16.863Z,100080.91
2018-02-12T20:43:18.731Z,100082.74
2018-02-12T20:46:20.024Z,100090.93
2018-02-12T20:49:21.351Z,100096.88
2018-02-12T20:52:23.132Z,100082.23
2018-02-12T20:55:24.474Z,100093.58
2018-02-12T20:58:25.776Z,100098.72
2018-02-12T21:01:27.474Z,100096.79
2018-02-12T21:04:29.048Z,100092.81
2018-02-12T21:07:30.715Z,100087.78
2018-02-12T21:10:32.238Z,100094.93
2018-02-12T21:13:34.057Z,100084.89
2018-02-12T21:16:35.343Z,100094.05
2018-02-12T21:19:36.854Z,100091.03
2018-02-12T21:22:38.263Z,100096.37
2018-02-12T21:25:40.009Z,100099.39
2018-02-12T21:28:42.907Z,100100.73
2018-02-12T21:31:45.717Z,100099.39
2018-02-12T21:34:48.189Z,100097.13
2018-02-12T21:37:50.051Z,100088.44
2018-02-12T21:40:51.578Z,100095.42
2018-02-12T21:43:53.689Z,100093.65
2018-02-12T21:46:55.495Z,100096.25
2018-02-12T21:49:56.962Z,100089.69
2018-02-12T21:52:58.733Z,100093.16
2018-02-12T21:56:00.724Z,100084.87
2018-02-12T21:59:02.079Z,100085.33
2018-02-12T22:02:04.476Z,100087.11
2018-02-12T22:05:05.965Z,100082.27
2018-02-12T22:08:08.382Z,100082.66
2018-02-12T22:11:10.923Z,100084.77
2018-02-12T22:14:12.876Z,100086.09
2018-02-12T22:17:15.492Z,100085.12
2018-02-12T22:20:16.947Z,100075.62
2018-02-12T22:23:18.467Z,100066.00
2018-02-12T22:26:19.872Z,100055.96
2018-02-12T22:29:22.269Z,100080.92
2018-02-12T22:32:24.393Z,100072.92
2018-02-12T22:35:25.725Z,100080.31
2018-02-12T22:38:28.247Z,100077.81
2018-02-12T22:41:29.552Z,100080.41
2018-02-12T22:44:30.914Z,100071.69
2018-02-12T22:47:32.340Z,100089.13
2018-02-12T22:50:34.453Z,100082.53
2018-02-12T22:53:36.517Z,100079.86
2018-02-12T22:56:38.343Z,100078.55
2018-02-12T22:59:39.718Z,100077.18
2018-02-12T23:02:41.832Z,100080.33
2018-02-12T23:05:43.177Z,100073.35
2018-02-12T23:08:44.763Z,100079.49
2018-02-12T23:11:46.135Z,100070.83
2018-02-12T23:14:47.541Z,100077.78
2018-02-12T23:17:49.396Z,100073.40
2018-02-12T23:20:50.906Z,100082.14
2018-02-12T23:23:53.068Z,100056.73
2018-02-12T23:26:54.421Z,100068.55
2018-02-12T23:29:56.774Z,100066.73
2018-02-12T23:32:59.205Z,100072.41
2018-02-12T23:36:02.043Z,100070.31
2018-02-12T23:39:03.412Z,100069.42
2018-02-12T23:42:04.782Z,100070.27
2018-02-12T23:45:06.182Z,100069.83
2018-02-12T23:48:07.542Z,100068.95
2018-02-12T23:51:08.895Z,100071.16
2018-02-12T23:54:23.630Z,100064.13
2018-02-12T23:57:25.006Z,100062.81
